Time;durP1;ratioP1;P1;durP2;ratioP2;P2;SDS_P1;SDS_P2;PMS_P1;PMS_P2;Temp;Humidity;BMP_temperature;BMP_pressure;BME280_temperature;BME280_humidity;BME280_pressure;Samples;Min_cycle;Max_cycle;Signal;HPM_P1;HPM_P2
2022/02/08 00:01:29;;;;;;;4.40;1.05;;;;;;;;;;5033176;28;20032;-43
2022/02/08 00:03:55;;;;;;;4.00;1.55;;;;;;;;;;5033042;28;20033;-44
2022/02/08 00:06:36;;;;;;;7.03;1.65;;;;;;;;;;5033091;28;20108;-43
2022/02/08 00:09:03;;;;;;;4.85;1.27;;;;;;;;;;5033369;28;20033;-43
2022/02/08 00:11:29;;;;;;;5.13;1.30;;;;;;;;;;5033213;28;20394;-43
2022/02/08 00:13:55;;;;;;;2.72;0.95;;;;;;;;;;5032912;28;20425;-43
2022/02/08 00:16:21;;;;;;;2.00;0.90;;;;;;;;;;5032859;28;20044;-43
2022/02/08 00:18:47;;;;;;;5.97;1.00;;;;;;;;;;5032860;28;20518;-43
2022/02/08 00:21:13;;;;;;;4.00;0.80;;;;;;;;;;5032731;28;20464;-43
2022/02/08 00:23:39;;;;;;;2.83;1.20;;;;;;;;;;5032675;28;20037;-43
2022/02/08 00:26:04;;;;;;;6.72;1.40;;;;;;;;;;5032757;28;20036;-43
2022/02/08 00:28:30;;;;;;;1.67;0.85;;;;;;;;;;5032714;28;20369;-44
2022/02/08 00:30:56;;;;;;;2.33;0.93;;;;;;;;;;5032652;28;20376;-43
2022/02/08 00:33:22;;;;;;;2.13;0.80;;;;;;;;;;5032575;28;20112;-45
2022/02/08 00:35:48;;;;;;;2.80;0.90;;;;;;;;;;5032593;28;20100;-42
2022/02/08 00:38:16;;;;;;;4.10;0.98;;;;;;;;;;5032499;28;20029;-45
2022/02/08 00:40:44;;;;;;;3.58;0.75;;;;;;;;;;5032437;28;20475;-42
2022/02/08 00:43:10;;;;;;;3.08;0.90;;;;;;;;;;5032272;28;20057;-42
2022/02/08 00:45:52;;;;;;;3.85;1.08;;;;;;;;;;5032433;28;20045;-43
2022/02/08 00:48:41;;;;;;;4.25;1.10;;;;;;;;;;5032771;28;20026;-43
2022/02/08 00:51:04;;;;;;;5.50;1.52;;;;;;;;;;5031673;28;20041;-43
2022/02/08 00:53:30;;;;;;;4.72;1.10;;;;;;;;;;5032282;28;20587;-43
2022/02/08 00:55:56;;;;;;;4.07;1.00;;;;;;;;;;5032336;28;20048;-43
2022/02/08 00:58:22;;;;;;;3.17;1.02;;;;;;;;;;5032272;28;20472;-43
2022/02/08 01:00:48;;;;;;;5.10;1.15;;;;;;;;;;5032225;28;20035;-43
2022/02/08 01:03:16;;;;;;;4.30;1.25;;;;;;;;;;5032114;28;20350;-43
2022/02/08 01:05:47;;;;;;;4.35;1.10;;;;;;;;;;5032039;28;20392;-43
2022/02/08 01:08:13;;;;;;;2.65;0.85;;;;;;;;;;5032173;28;20025;-43
2022/02/08 01:10:40;;;;;;;3.17;1.00;;;;;;;;;;5032122;28;20033;-43
2022/02/08 01:13:07;;;;;;;3.05;1.00;;;;;;;;;;5032045;28;20096;-43
2022/02/08 01:15:34;;;;;;;4.97;1.35;;;16.00;92.80;;;;;;5032522;28;20036;-44
2022/02/08 01:18:00;;;;;;;3.30;0.95;;;;;;;;;;5032192;28;20021;-43
2022/02/08 01:20:33;;;;;;;4.25;1.35;;;16.00;93.20;;;;;;5032099;28;20041;-44
2022/02/08 01:23:03;;;;;;;4.65;1.30;;;16.00;93.40;;;;;;5032033;28;20026;-45
2022/02/08 01:25:34;;;;;;;2.90;0.68;;;;;;;;;;5032117;28;20461;-45
2022/02/08 01:28:11;;;;;;;3.53;1.20;;;;;;;;;;5031928;28;20112;-44
2022/02/08 01:38:32;;;;;;;2.80;0.90;;;;;;;;;;5032042;28;20373;-44
2022/02/08 01:51:07;;;;;;;4.57;1.52;;;;;;;;;;5031951;28;20084;-45
2022/02/08 01:53:33;;;;;;;2.72;1.10;;;;;;;;;;5031690;28;20033;-44
2022/02/08 01:55:59;;;;;;;2.78;1.00;;;;;;;;;;5031703;28;20029;-44
2022/02/08 01:58:25;;;;;;;3.75;1.10;;;;;;;;;;5031705;28;20104;-44
2022/02/08 02:00:51;;;;;;;4.03;1.13;;;;;;;;;;5031875;28;20467;-44
2022/02/08 02:03:17;;;;;;;2.90;1.00;;;;;;;;;;5034168;28;20025;-44
2022/02/08 02:05:43;;;;;;;4.25;1.25;;;;;;;;;;5035258;28;20034;-44
2022/02/08 02:08:09;;;;;;;4.65;1.17;;;;;;;;;;5035291;28;20076;-44
2022/02/08 02:10:37;;;;;;;3.97;1.00;;;;;;;;;;5035307;28;20037;-45
2022/02/08 02:13:15;;;;;;;2.75;0.80;;;15.80;93.50;;;;;;5035233;28;20025;-44
2022/02/08 02:15:41;;;;;;;3.47;0.80;;;;;;;;;;5035532;28;20049;-44
2022/02/08 02:18:07;;;;;;;2.85;1.20;;;;;;;;;;5035159;28;20033;-45
2022/02/08 02:20:33;;;;;;;1.67;0.65;;;;;;;;;;5035190;28;20029;-45
2022/02/08 02:22:59;;;;;;;2.88;1.00;;;;;;;;;;5035345;28;20025;-44
2022/02/08 02:25:31;;;;;;;5.07;1.20;;;15.80;93.40;;;;;;5035015;28;20091;-45
2022/02/08 02:27:58;;;;;;;3.20;1.08;;;;;;;;;;5034966;28;20025;-45
2022/02/08 02:30:25;;;;;;;3.08;1.08;;;;;;;;;;5035043;28;20159;-44
2022/02/08 02:32:52;;;;;;;3.67;1.42;;;;;;;;;;5035193;28;20045;-44
2022/02/08 02:35:18;;;;;;;3.85;1.20;;;;;;;;;;5034879;28;20030;-45
2022/02/08 02:37:44;;;;;;;1.77;1.02;;;;;;;;;;5034795;28;20112;-44
2022/02/08 02:40:12;;;;;;;3.47;0.80;;;;;;;;;;5034796;28;20036;-44
2022/02/08 02:42:38;;;;;;;2.53;1.35;;;;;;;;;;5034500;28;20045;-45
2022/02/08 02:45:05;;;;;;;2.83;0.93;;;;;;;;;;5034647;28;20506;-45
2022/02/08 02:47:32;;;;;;;3.63;1.00;;;15.80;93.60;;;;;;5034697;28;20112;-45
2022/02/08 02:49:58;;;;;;;2.47;1.42;;;;;;;;;;5034570;28;20483;-44
2022/02/08 02:52:24;;;;;;;3.28;1.08;;;;;;;;;;5034870;28;20036;-44
2022/02/08 02:54:50;;;;;;;2.97;0.93;;;;;;;;;;5034601;28;20029;-43
2022/02/08 02:57:17;;;;;;;3.53;1.20;;;;;;;;;;5034486;28;20025;-43
2022/02/08 02:59:45;;;;;;;3.83;0.85;;;;;;;;;;5034421;28;20055;-42
2022/02/08 03:02:36;;;;;;;2.15;1.10;;;;;;;;;;5034649;28;20025;-43
2022/02/08 03:18:35;;;;;;;2.00;1.02;;;;;;;;;;5034320;28;20182;-43
2022/02/08 03:21:03;;;;;;;3.20;1.27;;;15.70;93.70;;;;;;5032860;28;20373;-43
2022/02/08 03:23:29;;;;;;;1.80;0.73;;;;;;;;;;5034109;28;20380;-42
2022/02/08 03:25:55;;;;;;;2.00;0.80;;;;;;;;;;5034175;28;20029;-42
2022/02/08 03:28:21;;;;;;;5.53;1.10;;;;;;;;;;5034004;28;20032;-43
2022/02/08 03:30:47;;;;;;;3.17;1.23;;;;;;;;;;5033880;28;20029;-42
2022/02/08 03:33:13;;;;;;;2.05;0.70;;;;;;;;;;5034071;28;20036;-43
2022/02/08 03:35:39;;;;;;;1.60;0.90;;;;;;;;;;5033853;28;20030;-43
2022/02/08 03:38:08;;;;;;;1.40;0.88;;;;;;;;;;5033611;28;20052;-43
2022/02/08 03:43:12;;;;;;;1.90;0.73;;;;;;;;;;5033523;28;20102;-43
2022/02/08 03:45:39;;;;;;;1.40;0.80;;;;;;;;;;5033612;28;20033;-44
2022/02/08 03:48:05;;;;;;;3.03;1.05;;;;;;;;;;5033531;28;20033;-44
2022/02/08 03:50:31;;;;;;;3.03;1.00;;;;;;;;;;5033385;28;20452;-46
2022/02/08 03:52:57;;;;;;;2.72;0.90;;;;;;;;;;5033717;28;20437;-45
2022/02/08 03:55:23;;;;;;;1.08;0.57;;;;;;;;;;5033310;28;20108;-46
2022/02/08 03:57:49;;;;;;;1.85;0.82;;;;;;;;;;5033400;28;20029;-44
2022/02/08 04:00:17;;;;;;;3.95;0.93;;;;;;;;;;5033463;28;20387;-45
2022/02/08 04:02:48;;;;;;;2.90;0.88;;;;;;;;;;5033243;28;20029;-44
2022/02/08 04:05:22;;;;;;;3.42;1.15;;;;;;;;;;5033170;28;20472;-48
2022/02/08 04:07:59;;;;;;;2.53;1.02;;;;;;;;;;5033238;28;20027;-47
2022/02/08 04:10:28;;;;;;;2.85;1.00;;;;;;;;;;5033088;28;20025;-46
2022/02/08 04:41:47;;;;;;;1.55;0.98;;;;;;;;;;5032610;28;20175;-46
2022/02/08 04:46:49;;;;;;;1.30;0.60;;;;;;;;;;5032449;28;20506;-46
2022/02/08 04:49:15;;;;;;;1.60;0.75;;;;;;;;;;5032490;28;20028;-46
2022/02/08 04:51:49;;;;;;;2.75;0.82;;;;;;;;;;5032655;28;20056;-46
2022/02/08 04:54:23;;;;;;;2.05;1.05;;;;;;;;;;5032383;28;20041;-46
2022/02/08 05:00:13;;;;;;;2.38;0.88;;;;;;;;;;5032627;28;20069;-47
2022/02/08 05:45:26;;;;;;;4.05;0.82;;;;;;;;;;5035854;28;20026;-44
2022/02/08 05:47:55;;;;;;;0.70;0.60;;;;;;;;;;5035778;28;20488;-44
2022/02/08 05:50:41;;;;;;;3.47;0.90;;;;;;;;;;5035808;28;20033;-45
2022/02/08 05:53:26;;;;;;;2.45;1.00;;;;;;;;;;5035897;28;20044;-44
2022/02/08 05:55:51;;;;;;;1.67;0.50;;;;;;;;;;5035966;28;20455;-44
2022/02/08 05:58:17;;;;;;;2.67;1.02;;;;;;;;;;5035817;28;20096;-44
2022/02/08 06:00:43;;;;;;;3.38;0.93;;;;;;;;;;5035627;28;20037;-44
2022/02/08 06:03:09;;;;;;;2.50;1.10;;;;;;;;;;5035488;28;20387;-45
2022/02/08 06:05:36;;;;;;;2.10;0.93;;;;;;;;;;5035404;28;20041;-45
2022/02/08 06:08:02;;;;;;;1.00;0.65;;;;;;;;;;5035399;28;20468;-46
2022/02/08 06:10:29;;;;;;;1.77;0.70;;;;;;;;;;5035571;28;20022;-44
2022/02/08 06:12:56;;;;;;;1.52;0.70;;;;;;;;;;5035348;28;20025;-45
2022/02/08 06:15:24;;;;;;;1.60;1.10;;;;;;;;;;5035261;28;20029;-44
2022/02/08 06:17:52;;;;;;;1.92;0.70;;;15.30;94.50;;;;;;5035079;28;20029;-44
2022/02/08 06:20:18;;;;;;;3.28;0.90;;;;;;;;;;5035218;28;20056;-45
2022/02/08 06:22:44;;;;;;;3.78;0.70;;;;;;;;;;5035082;28;20057;-44
2022/02/08 06:25:14;;;;;;;2.13;0.80;;;15.40;93.30;;;;;;5035326;28;20029;-44
2022/02/08 06:27:41;;;;;;;1.92;0.60;;;;;;;;;;5035708;28;20387;-45
2022/02/08 06:30:08;;;;;;;2.55;0.93;;;15.40;94.60;;;;;;5035119;28;20025;-45
2022/02/08 06:32:36;;;;;;;2.13;0.70;;;;;;;;;;5035230;28;20025;-46
2022/02/08 06:35:07;;;;;;;2.90;0.80;;;;;;;;;;5035017;28;20545;-46
2022/02/08 06:37:35;;;;;;;1.83;0.90;;;;;;;;;;5035088;28;20045;-46
2022/02/08 06:40:02;;;;;;;3.92;0.88;;;;;;;;;;5035053;28;20035;-44
2022/02/08 06:42:28;;;;;;;2.33;0.98;;;;;;;;;;5034529;28;20037;-44
2022/02/08 06:44:54;;;;;;;2.05;0.85;;;;;;;;;;5033262;28;20106;-45
2022/02/08 06:47:20;;;;;;;1.55;0.60;;;;;;;;;;5034149;28;20018;-46
2022/02/08 06:49:46;;;;;;;4.20;1.27;;;;;;;;;;5034403;28;20503;-45
2022/02/08 06:52:12;;;;;;;2.65;0.70;;;;;;;;;;5034761;28;20506;-46
2022/02/08 14:05:07;;;;;;;3.78;0.85;;;;;;;;;;5069473;28;20029;-45
2022/02/08 14:09:39;;;;;;;2.47;0.52;;;;;;;;;;5069376;28;20386;-46
2022/02/08 14:19:53;;;;;;;1.52;0.50;;;;;;;;;;5069188;28;20082;-44
2022/02/08 14:25:18;;;;;;;1.30;0.60;;;;;;;;;;5069008;28;20090;-44
2022/02/08 14:30:38;;;;;;;2.25;0.68;;;;;;;;;;5068715;28;20032;-45
2022/02/08 14:36:01;;;;;;;1.95;0.70;;;;;;;;;;5068314;28;20068;-45
2022/02/08 14:57:44;;;;;;;1.35;0.75;;;;;;;;;;5054922;28;20091;-46
2022/02/08 15:00:22;;;;;;;1.13;0.52;;;;;;;;;;5054869;28;20045;-46
2022/02/08 15:08:31;;;;;;;1.15;0.40;;;;;;;;;;5054989;28;20039;-46
2022/02/08 15:11:05;;;;;;;1.35;0.40;;;;;;;;;;5054751;28;20086;-46
2022/02/08 15:13:31;;;;;;;1.02;0.60;;;;;;;;;;5054670;28;20033;-46
2022/02/08 15:16:07;;;;;;;1.48;0.55;;;;;;;;;;5054238;28;20135;-46
2022/02/08 15:18:33;;;;;;;0.47;0.47;;;;;;;;;;5054823;28;20029;-46
2022/02/08 15:21:00;;;;;;;1.42;0.75;;;18.40;85.40;;;;;;5054367;28;20029;-46
2022/02/08 15:23:27;;;;;;;5.03;0.40;;;18.40;85.50;;;;;;5054499;28;20352;-45
2022/02/08 15:25:54;;;;;;;0.85;0.50;;;;;;;;;;5054303;28;20031;-46
2022/02/08 15:28:22;;;;;;;2.72;0.70;;;;;;;;;;5054313;28;20025;-46
2022/02/08 15:30:48;;;;;;;1.77;0.60;;;;;;;;;;5054221;28;20041;-46
2022/02/08 15:33:14;;;;;;;1.33;0.40;;;;;;;;;;5054179;28;20025;-45
2022/02/08 15:35:40;;;;;;;1.02;0.60;;;;;;;;;;5054253;28;20045;-45
2022/02/08 15:38:06;;;;;;;1.05;0.65;;;;;;;;;;5054190;28;20028;-46
2022/02/08 15:40:33;;;;;;;2.38;0.60;;;18.50;88.30;;;;;;5054446;28;20024;-45
2022/02/08 15:43:00;;;;;;;3.67;0.70;;;;;;;;;;5054127;28;20028;-45
2022/02/08 15:45:31;;;;;;;1.27;0.50;;;;;;;;;;5054322;28;20029;-45
2022/02/08 15:47:59;;;;;;;1.17;0.50;;;;;;;;;;5054232;28;20442;-47
2022/02/08 15:56:06;;;;;;;2.33;0.60;;;;;;;;;;5053847;28;20037;-46
2022/02/08 16:08:49;;;;;;;3.28;0.50;;;;;;;;;;5053859;28;20086;-46
2022/02/08 16:13:59;;;;;;;1.23;0.50;;;;;;;;;;5053784;28;20036;-45
2022/02/08 16:19:10;;;;;;;1.02;0.52;;;;;;;;;;5053730;28;20033;-46
2022/02/08 16:22:07;;;;;;;2.45;0.60;;;;;;;;;;5053365;28;20486;-47
2022/02/08 16:33:11;;;;;;;1.08;0.52;;;;;;;;;;5053162;28;20075;-45
2022/02/08 16:49:39;;;;;;;2.50;0.60;;;;;;;;;;5052658;28;20028;-46
2022/02/08 16:54:48;;;;;;;2.25;0.22;;;;;;;;;;5052684;28;20064;-45
2022/02/08 16:57:20;;;;;;;1.95;0.35;;;;;;;;;;5052701;28;20503;-46
2022/02/08 16:59:47;;;;;;;0.95;0.30;;;;;;;;;;5052661;28;20052;-45
2022/02/08 17:02:19;;;;;;;1.23;0.40;;;;;;;;;;5052246;28;20021;-46
2022/02/08 17:04:46;;;;;;;1.55;0.50;;;;;;;;;;5052511;28;20485;-46
2022/02/08 17:07:12;;;;;;;2.65;0.73;;;;;;;;;;5052518;28;20021;-45
2022/02/08 17:09:48;;;;;;;1.27;0.30;;;;;;;;;;5052414;28;20108;-46
2022/02/08 17:12:21;;;;;;;0.98;0.30;;;18.10;87.90;;;;;;5052477;28;20028;-46
2022/02/08 17:17:42;;;;;;;1.35;0.45;;;;;;;;;;5052224;28;20044;-46
2022/02/08 17:47:32;;;;;;;1.13;0.50;;;;;;;;;;5050681;28;20437;-44
2022/02/08 17:49:58;;;;;;;1.02;0.30;;;;;;;;;;5052391;28;20061;-45
2022/02/08 17:52:24;;;;;;;3.53;0.88;;;;;;;;;;5052032;28;20471;-45
2022/02/08 17:54:51;;;;;;;1.58;0.40;;;;;;;;;;5051872;28;20035;-47
2022/02/08 17:57:17;;;;;;;2.70;0.40;;;;;;;;;;5051983;28;20548;-45
2022/02/08 17:59:43;;;;;;;1.38;0.65;;;;;;;;;;5052009;28;20029;-45
2022/02/08 18:02:11;;;;;;;1.13;0.30;;;;;;;;;;5051968;28;20471;-45
2022/02/08 18:04:37;;;;;;;1.23;0.50;;;;;;;;;;5052112;28;20657;-45
2022/02/08 18:07:04;;;;;;;0.75;0.28;;;;;;;;;;5051858;28;20104;-45
2022/02/08 18:09:30;;;;;;;0.70;0.30;;;;;;;;;;5051840;28;20028;-46
2022/02/08 18:11:59;;;;;;;0.93;0.40;;;18.00;87.70;;;;;;5050555;28;20026;-47
2022/02/08 18:14:25;;;;;;;2.50;0.40;;;;;;;;;;5050394;28;20024;-47
2022/02/08 18:17:03;;;;;;;1.92;0.55;;;;;;;;;;5050391;28;20113;-47
2022/02/08 18:19:34;;;;;;;0.63;0.28;;;;;;;;;;5051785;28;20100;-46
2022/02/08 18:25:04;;;;;;;1.55;0.35;;;;;;;;;;5055522;28;20083;-47
2022/02/08 18:57:45;;;;;;;2.75;0.50;;;;;;;;;;5054933;28;20047;-46
2022/02/08 19:11:37;;;;;;;0.88;0.38;;;;;;;;;;5054804;28;20492;-46
2022/02/08 19:19:22;;;;;;;2.08;0.63;;;;;;;;;;5054551;28;20029;-45
2022/02/08 19:21:54;;;;;;;3.60;0.95;;;;;;;;;;5054392;28;20399;-45
2022/02/08 19:24:22;;;;;;;5.07;0.80;;;;;;;;;;5054438;28;20131;-47
2022/02/08 19:26:59;;;;;;;1.40;0.40;;;17.50;80.50;;;;;;5054084;28;20103;-46
2022/02/08 19:29:26;;;;;;;1.55;0.60;;;;;;;;;;5054080;28;20040;-46
2022/02/08 19:31:53;;;;;;;2.15;0.60;;;;;;;;;;5054183;28;20064;-45
2022/02/08 19:34:19;;;;;;;1.58;0.45;;;;;;;;;;5052339;28;20476;-45
2022/02/08 19:36:45;;;;;;;1.60;0.60;;;;;;;;;;5053938;28;20044;-46
2022/02/08 19:39:13;;;;;;;2.05;0.60;;;17.50;87.80;;;;;;5052527;28;20025;-47
2022/02/08 19:41:39;;;;;;;1.08;0.57;;;;;;;;;;5053768;28;20029;-45
2022/02/08 19:44:07;;;;;;;2.85;0.90;;;;;;;;;;5053820;28;20025;-45
2022/02/08 19:46:33;;;;;;;3.10;0.75;;;;;;;;;;5053794;28;20021;-45
2022/02/08 19:48:59;;;;;;;3.08;0.85;;;;;;;;;;5053743;28;20029;-45
2022/02/08 19:51:26;;;;;;;1.05;0.45;;;;;;;;;;5053950;28;20029;-44
2022/02/08 19:53:55;;;;;;;1.08;0.50;;;;;;;;;;5052904;28;20029;-46
2022/02/08 19:59:08;;;;;;;2.25;0.70;;;;;;;;;;5054049;28;20499;-49
2022/02/08 20:01:36;;;;;;;2.22;0.60;;;;;;;;;;5053443;28;20028;-44
2022/02/08 20:04:16;;;;;;;3.28;0.50;;;;;;;;;;5053297;28;20509;-45
2022/02/08 20:06:42;;;;;;;1.80;0.63;;;;;;;;;;5053883;28;20017;-45
2022/02/08 20:09:08;;;;;;;2.30;0.50;;;;;;;;;;5053451;28;20028;-48
2022/02/08 20:11:35;;;;;;;2.35;0.82;;;;;;;;;;5053797;28;20040;-48
2022/02/08 20:14:02;;;;;;;0.73;0.50;;;;;;;;;;5053539;28;20040;-46
2022/02/08 20:16:30;;;;;;;3.22;0.75;;;17.40;87.70;;;;;;5053631;28;20059;-46
2022/02/08 20:18:59;;;;;;;2.55;0.70;;;;;;;;;;5053732;28;20043;-46
2022/02/08 20:21:27;;;;;;;1.35;0.75;;;;;;;;;;5053384;28;20270;-46
2022/02/08 20:23:54;;;;;;;1.77;0.70;;;;;;;;;;5053288;28;20391;-46
2022/02/08 20:26:24;;;;;;;4.25;0.52;;;;;;;;;;5053150;28;20021;-47
2022/02/08 20:28:56;;;;;;;2.40;0.50;;;;;;;;;;5053176;28;20028;-47
2022/02/08 20:31:23;;;;;;;2.08;0.70;;;;;;;;;;5053131;28;20079;-46
2022/02/08 20:33:49;;;;;;;4.10;0.75;;;;;;;;;;5052989;28;20025;-45
2022/02/08 20:36:17;;;;;;;5.13;0.82;;;17.30;87.50;;;;;;5052832;28;20060;-45
2022/02/08 20:38:45;;;;;;;4.00;0.95;;;17.20;87.50;;;;;;5053052;28;20117;-45
2022/02/08 20:41:12;;;;;;;3.95;1.00;;;;;;;;;;5052956;28;20086;-45
2022/02/08 20:43:39;;;;;;;4.00;1.55;;;;;;;;;;5053121;28;20115;-45
2022/02/08 20:46:06;;;;;;;4.95;0.93;;;;;;;;;;5052401;28;20033;-45
2022/02/08 20:48:34;;;;;;;2.97;1.00;;;17.30;87.40;;;;;;5052708;28;20024;-45
2022/02/08 20:51:02;;;;;;;2.15;0.63;;;;;;;;;;5050928;28;20529;-45
2022/02/08 20:53:40;;;;;;;2.35;0.93;;;17.30;87.10;;;;;;5052295;28;20112;-46
2022/02/08 20:56:25;;;;;;;5.05;0.98;;;17.40;87.30;;;;;;5052166;28;20063;-47
2022/02/08 20:59:04;;;;;;;3.28;0.90;;;;;;;;;;5052522;28;20104;-46
2022/02/08 21:01:35;;;;;;;1.65;0.60;;;17.40;87.30;;;;;;5052722;28;20033;-46
2022/02/08 21:04:06;;;;;;;2.92;1.02;;;17.50;85.10;;;;;;5052391;28;20022;-46
2022/02/08 21:06:34;;;;;;;2.25;0.90;;;;;;;;;;5052355;28;20467;-47
2022/02/08 21:09:01;;;;;;;2.88;0.80;;;17.50;87.90;;;;;;5052312;28;20029;-47
2022/02/08 21:11:36;;;;;;;3.13;1.10;;;17.50;87.70;;;;;;5052268;28;20459;-46
2022/02/08 21:14:05;;;;;;;2.00;0.50;;;17.50;88.10;;;;;;5052353;28;20075;-46
2022/02/08 21:16:44;;;;;;;2.40;0.75;;;17.50;81.30;;;;;;5052071;28;20025;-46
2022/02/08 21:19:15;;;;;;;3.83;0.90;;;17.50;87.80;;;;;;5052057;28;20033;-46
2022/02/08 21:21:41;;;;;;;2.97;0.70;;;;;;;;;;5052262;28;20052;-47
2022/02/08 21:24:08;;;;;;;1.58;0.70;;;;;;;;;;5051935;28;20029;-46
2022/02/08 21:26:38;;;;;;;3.00;0.70;;;;;;;;;;5051968;28;20090;-46
2022/02/08 21:32:06;;;;;;;1.20;0.60;;;;;;;;;;5052145;28;20125;-48
2022/02/08 21:52:58;;;;;;;2.85;0.80;;;17.40;88.50;;;;;;5052112;28;20035;-45
2022/02/08 21:55:24;;;;;;;4.95;0.70;;;;;;;;;;5051693;28;20044;-46
2022/02/08 21:57:54;;;;;;;3.03;0.60;;;;;;;;;;5054947;28;20094;-46
2022/02/08 22:00:24;;;;;;;2.40;0.60;;;17.20;81.60;;;;;;5056156;28;20434;-45
2022/02/08 22:02:51;;;;;;;1.40;0.85;;;17.30;88.20;;;;;;5055979;28;20033;-45
2022/02/08 22:05:17;;;;;;;1.27;0.40;;;;;;;;;;5055924;28;20029;-46
2022/02/08 22:07:52;;;;;;;1.63;0.47;;;;;;;;;;5056181;28;20029;-46
2022/02/08 22:15:45;;;;;;;3.17;0.65;;;;;;;;;;5056175;28;20032;-46
2022/02/08 22:24:04;;;;;;;1.73;0.70;;;;;;;;;;5055640;28;20391;-46
2022/02/08 22:26:58;;;;;;;2.20;0.95;;;;;;;;;;5055801;28;20025;-46
2022/02/08 22:29:43;;;;;;;4.43;0.63;;;;;;;;;;5055715;28;20029;-46
2022/02/08 22:32:16;;;;;;;1.05;0.50;;;;;;;;;;5055462;28;20390;-46
2022/02/08 22:34:50;;;;;;;4.15;0.65;;;;;;;;;;5055351;28;20387;-46
2022/02/08 22:37:28;;;;;;;1.38;0.88;;;;;;;;;;5055672;28;20033;-46
2022/02/08 22:40:00;;;;;;;3.28;1.25;;;;;;;;;;5055366;28;20029;-45
2022/02/08 22:42:31;;;;;;;3.17;0.60;;;;;;;;;;5055544;28;20066;-45
2022/02/08 22:44:58;;;;;;;0.63;0.50;;;;;;;;;;5055433;28;20036;-45
2022/02/08 22:47:25;;;;;;;1.55;0.40;;;;;;;;;;5055340;28;20029;-45
2022/02/08 22:49:51;;;;;;;0.82;0.50;;;;;;;;;;5055449;28;20033;-46
2022/02/08 22:52:18;;;;;;;1.35;0.38;;;16.90;86.30;;;;;;5055068;28;20364;-46
2022/02/08 22:54:44;;;;;;;2.70;0.55;;;;;;;;;;5054934;28;20021;-45
2022/02/08 22:57:11;;;;;;;1.10;0.63;;;;;;;;;;5054982;28;20032;-47
2022/02/08 22:59:39;;;;;;;1.30;0.43;;;16.90;89.60;;;;;;5055173;28;20036;-45
2022/02/08 23:02:06;;;;;;;0.73;0.40;;;;;;;;;;5055177;28;20017;-45
2022/02/08 23:04:33;;;;;;;0.98;0.40;;;;;;;;;;5054844;28;20029;-45
2022/02/08 23:07:00;;;;;;;1.33;0.60;;;;;;;;;;5054425;28;20110;-46
2022/02/08 23:14:33;;;;;;;1.60;0.50;;;;;;;;;;5054862;28;20033;-45
2022/02/08 23:38:50;;;;;;;1.35;0.40;;;;;;;;;;5054197;28;20078;-45
2022/02/08 23:41:16;;;;;;;1.55;0.60;;;;;;;;;;5054202;28;20483;-45
2022/02/08 23:43:44;;;;;;;0.60;0.43;;;;;;;;;;5054341;28;20052;-46
2022/02/08 23:46:11;;;;;;;1.13;0.63;;;;;;;;;;5054280;28;20457;-45
2022/02/08 23:48:45;;;;;;;1.52;0.40;;;;;;;;;;5054020;28;20021;-45
2022/02/08 23:51:19;;;;;;;1.42;0.50;;;;;;;;;;5054241;28;20029;-46
2022/02/08 23:54:00;;;;;;;2.33;0.68;;;;;;;;;;5053897;28;20037;-45
2022/02/08 23:56:53;;;;;;;0.68;0.35;;;;;;;;;;5054131;28;20032;-45
2022/02/08 23:59:17;;;;;;;1.38;0.30;;;;;;;;;;5053823;28;20098;-47
